Weather at Mataiva Airport

Public forecast

Using degrees Celsius for public forecast. Weather courtesy of forecast.io.

Closest aviation weather report (METAR) to Mataiva Airport

Report is more than 6 hours old.

Closest report is Faa'a International Airport, 169.2 nm (313.4 km) SSW. Retrieved 2022/09/17 19:00 UTC (14 days ago):

NTAA 171900Z 33004KT 9999 FEW023 27/20 Q1020 NOSIG

Closest aviation forecast (TAF) to Mataiva Airport

Forecast is more than 12 hours old.

Closest forecast is Faa'a International Airport, 169.2 nm (313.4 km) SSW. Retrieved 2022/09/17 18:15 UTC (14 days ago):

TAF NTAA 171700Z 1718/1824 VRB05KT 9999 FEW025 SCT050